createdAt,value
2018-12-10T22:03:49.049Z,100558.10
2018-12-10T22:06:17.390Z,100561.58
2018-12-10T22:08:45.882Z,100565.53
2018-12-10T22:11:14.720Z,100564.48
2018-12-10T22:13:45.866Z,100565.70
2018-12-10T22:16:14.800Z,100556.78
2018-12-10T22:18:45.444Z,100565.84
2018-12-10T22:21:14.416Z,100568.47
2018-12-10T22:23:42.760Z,100566.17
2018-12-10T22:26:11.065Z,100574.87
2018-12-10T22:28:39.508Z,100573.91
2018-12-10T22:31:08.356Z,100572.73
2018-12-10T22:33:36.789Z,100570.59
2018-12-10T22:36:05.505Z,100571.61
2018-12-10T22:38:34.007Z,100570.11
2018-12-10T22:41:02.562Z,100566.50
2018-12-10T22:43:31.212Z,100574.19
2018-12-10T22:46:04.830Z,100569.27
2018-12-10T22:48:34.046Z,100569.27
2018-12-10T22:51:02.376Z,100564.83
2018-12-10T22:53:31.100Z,100568.30
2018-12-10T22:55:59.621Z,100569.70
2018-12-10T22:58:27.959Z,100575.95
2018-12-10T23:00:56.931Z,100579.98
2018-12-10T23:03:25.562Z,100578.30
2018-12-10T23:05:54.069Z,100585.06
2018-12-10T23:08:22.711Z,100575.84
2018-12-10T23:10:55.102Z,100583.75
2018-12-10T23:13:24.321Z,100599.91
2018-12-10T23:15:52.615Z,100595.30
2018-12-10T23:18:20.987Z,100587.89
2018-12-10T23:20:49.960Z,100593.63
2018-12-10T23:23:18.814Z,100602.39
2018-12-10T23:25:47.577Z,100602.19
2018-12-10T23:28:16.186Z,100608.14
2018-12-10T23:30:44.619Z,100614.75
2018-12-10T23:35:48.314Z,100605.50
2018-12-10T23:38:16.736Z,100606.61
2018-12-10T23:40:45.010Z,100612.34
2018-12-10T23:43:19.049Z,100609.77
2018-12-10T23:45:47.348Z,100606.82
2018-12-10T23:48:15.718Z,100614.07
2018-12-10T23:50:44.091Z,100614.21
2018-12-10T23:53:12.680Z,100616.66
2018-12-10T23:55:41.004Z,100614.33
2018-12-10T23:58:09.303Z,100623.22
